sensor_id;sensor_type;location;lat;lon;timestamp;P1;durP1;ratioP1;P2;durP2;ratioP2
11763;SDS011;5939;56.522;14.950;2023-07-22T00:01:23;1.90;;;1.03;;
11763;SDS011;5939;56.522;14.950;2023-07-22T00:03:49;2.80;;;1.50;;
11763;SDS011;5939;56.522;14.950;2023-07-22T00:06:14;1.67;;;0.90;;
11763;SDS011;5939;56.522;14.950;2023-07-22T00:08:40;0.90;;;0.87;;
11763;SDS011;5939;56.522;14.950;2023-07-22T00:11:06;1.13;;;1.00;;
11763;SDS011;5939;56.522;14.950;2023-07-22T00:13:32;1.23;;;0.93;;
11763;SDS011;5939;56.522;14.950;2023-07-22T00:15:58;2.07;;;1.00;;
11763;SDS011;5939;56.522;14.950;2023-07-22T00:18:25;0.90;;;0.90;;
11763;SDS011;5939;56.522;14.950;2023-07-22T00:20:52;2.10;;;1.23;;
11763;SDS011;5939;56.522;14.950;2023-07-22T00:23:18;1.13;;;1.00;;
11763;SDS011;5939;56.522;14.950;2023-07-22T00:25:45;2.03;;;1.00;;
11763;SDS011;5939;56.522;14.950;2023-07-22T00:28:14;2.47;;;1.30;;
11763;SDS011;5939;56.522;14.950;2023-07-22T00:30:40;1.20;;;1.10;;
11763;SDS011;5939;56.522;14.950;2023-07-22T00:33:06;2.40;;;1.10;;
11763;SDS011;5939;56.522;14.950;2023-07-22T00:35:32;1.10;;;1.00;;
11763;SDS011;5939;56.522;14.950;2023-07-22T00:38:00;3.60;;;1.10;;
11763;SDS011;5939;56.522;14.950;2023-07-22T00:40:26;1.13;;;1.03;;
11763;SDS011;5939;56.522;14.950;2023-07-22T00:42:52;1.50;;;1.30;;
11763;SDS011;5939;56.522;14.950;2023-07-22T00:45:17;2.60;;;1.10;;
11763;SDS011;5939;56.522;14.950;2023-07-22T00:47:43;1.90;;;1.20;;
11763;SDS011;5939;56.522;14.950;2023-07-22T00:50:10;1.30;;;1.00;;
11763;SDS011;5939;56.522;14.950;2023-07-22T00:52:36;1.53;;;1.03;;
11763;SDS011;5939;56.522;14.950;2023-07-22T00:55:03;1.30;;;1.00;;
11763;SDS011;5939;56.522;14.950;2023-07-22T00:57:30;3.30;;;1.30;;
11763;SDS011;5939;56.522;14.950;2023-07-22T00:59:55;2.60;;;1.20;;
11763;SDS011;5939;56.522;14.950;2023-07-22T01:02:21;1.63;;;1.00;;
11763;SDS011;5939;56.522;14.950;2023-07-22T01:04:48;1.60;;;1.03;;
11763;SDS011;5939;56.522;14.950;2023-07-22T01:07:15;2.73;;;1.50;;
11763;SDS011;5939;56.522;14.950;2023-07-22T01:09:41;1.50;;;1.10;;
11763;SDS011;5939;56.522;14.950;2023-07-22T01:12:08;1.70;;;1.07;;
11763;SDS011;5939;56.522;14.950;2023-07-22T01:14:35;1.10;;;1.00;;
11763;SDS011;5939;56.522;14.950;2023-07-22T01:17:03;1.20;;;1.10;;
11763;SDS011;5939;56.522;14.950;2023-07-22T01:19:30;1.60;;;1.00;;
11763;SDS011;5939;56.522;14.950;2023-07-22T01:22:00;2.10;;;1.13;;
11763;SDS011;5939;56.522;14.950;2023-07-22T01:24:29;1.50;;;1.20;;
11763;SDS011;5939;56.522;14.950;2023-07-22T01:26:56;1.93;;;1.10;;
11763;SDS011;5939;56.522;14.950;2023-07-22T01:29:22;2.87;;;1.10;;
11763;SDS011;5939;56.522;14.950;2023-07-22T01:31:50;1.30;;;1.20;;
11763;SDS011;5939;56.522;14.950;2023-07-22T01:34:17;1.13;;;1.00;;
11763;SDS011;5939;56.522;14.950;2023-07-22T01:36:43;1.43;;;1.13;;
11763;SDS011;5939;56.522;14.950;2023-07-22T01:39:10;1.17;;;1.07;;
11763;SDS011;5939;56.522;14.950;2023-07-22T01:41:36;2.20;;;1.23;;
11763;SDS011;5939;56.522;14.950;2023-07-22T01:44:02;2.23;;;1.20;;
11763;SDS011;5939;56.522;14.950;2023-07-22T01:46:28;1.80;;;1.20;;
11763;SDS011;5939;56.522;14.950;2023-07-22T01:48:55;2.03;;;1.20;;
11763;SDS011;5939;56.522;14.950;2023-07-22T01:51:21;1.40;;;1.10;;
11763;SDS011;5939;56.522;14.950;2023-07-22T01:53:46;1.60;;;1.47;;
11763;SDS011;5939;56.522;14.950;2023-07-22T01:56:12;1.30;;;1.20;;
11763;SDS011;5939;56.522;14.950;2023-07-22T01:58:38;1.77;;;1.30;;
11763;SDS011;5939;56.522;14.950;2023-07-22T02:01:04;1.90;;;0.90;;
11763;SDS011;5939;56.522;14.950;2023-07-22T02:03:29;1.43;;;0.97;;
11763;SDS011;5939;56.522;14.950;2023-07-22T02:06:03;1.23;;;1.07;;
11763;SDS011;5939;56.522;14.950;2023-07-22T02:08:29;2.33;;;1.20;;
11763;SDS011;5939;56.522;14.950;2023-07-22T02:10:59;1.40;;;1.10;;
11763;SDS011;5939;56.522;14.950;2023-07-22T02:13:26;2.37;;;1.30;;
11763;SDS011;5939;56.522;14.950;2023-07-22T02:15:52;1.20;;;1.10;;
11763;SDS011;5939;56.522;14.950;2023-07-22T02:18:17;1.50;;;1.30;;
11763;SDS011;5939;56.522;14.950;2023-07-22T02:20:43;1.33;;;1.20;;
11763;SDS011;5939;56.522;14.950;2023-07-22T02:23:09;1.10;;;1.00;;
11763;SDS011;5939;56.522;14.950;2023-07-22T02:25:35;1.47;;;1.17;;
11763;SDS011;5939;56.522;14.950;2023-07-22T02:28:01;1.10;;;0.93;;
11763;SDS011;5939;56.522;14.950;2023-07-22T02:30:27;1.97;;;1.20;;
11763;SDS011;5939;56.522;14.950;2023-07-22T02:32:52;1.53;;;1.10;;
11763;SDS011;5939;56.522;14.950;2023-07-22T02:35:18;2.10;;;1.43;;
11763;SDS011;5939;56.522;14.950;2023-07-22T02:37:44;1.83;;;1.10;;
11763;SDS011;5939;56.522;14.950;2023-07-22T02:40:09;1.40;;;1.17;;
11763;SDS011;5939;56.522;14.950;2023-07-22T02:42:39;1.00;;;0.90;;
11763;SDS011;5939;56.522;14.950;2023-07-22T02:45:05;1.27;;;1.10;;
11763;SDS011;5939;56.522;14.950;2023-07-22T02:47:33;2.23;;;1.00;;
11763;SDS011;5939;56.522;14.950;2023-07-22T02:49:59;1.30;;;1.20;;
11763;SDS011;5939;56.522;14.950;2023-07-22T02:52:25;1.97;;;1.30;;
11763;SDS011;5939;56.522;14.950;2023-07-22T02:55:07;2.00;;;1.10;;
11763;SDS011;5939;56.522;14.950;2023-07-22T02:57:35;1.70;;;1.17;;
11763;SDS011;5939;56.522;14.950;2023-07-22T03:00:02;1.37;;;1.27;;
11763;SDS011;5939;56.522;14.950;2023-07-22T03:02:38;2.20;;;1.30;;
11763;SDS011;5939;56.522;14.950;2023-07-22T03:05:05;1.53;;;1.20;;
11763;SDS011;5939;56.522;14.950;2023-07-22T03:07:35;1.83;;;1.33;;
11763;SDS011;5939;56.522;14.950;2023-07-22T03:10:02;1.57;;;1.27;;
11763;SDS011;5939;56.522;14.950;2023-07-22T03:12:28;1.33;;;1.07;;
11763;SDS011;5939;56.522;14.950;2023-07-22T03:14:53;1.20;;;1.10;;
11763;SDS011;5939;56.522;14.950;2023-07-22T03:17:19;1.10;;;1.00;;
11763;SDS011;5939;56.522;14.950;2023-07-22T03:19:45;1.20;;;1.10;;
11763;SDS011;5939;56.522;14.950;2023-07-22T03:22:13;1.17;;;1.07;;
11763;SDS011;5939;56.522;14.950;2023-07-22T03:24:41;1.20;;;1.10;;
11763;SDS011;5939;56.522;14.950;2023-07-22T03:27:07;2.10;;;1.40;;
11763;SDS011;5939;56.522;14.950;2023-07-22T03:29:32;1.63;;;1.20;;
11763;SDS011;5939;56.522;14.950;2023-07-22T03:31:58;2.43;;;1.23;;
11763;SDS011;5939;56.522;14.950;2023-07-22T03:34:25;2.13;;;1.20;;
11763;SDS011;5939;56.522;14.950;2023-07-22T03:36:51;1.43;;;1.20;;
11763;SDS011;5939;56.522;14.950;2023-07-22T03:39:17;1.70;;;1.23;;
11763;SDS011;5939;56.522;14.950;2023-07-22T03:41:43;1.80;;;1.30;;
11763;SDS011;5939;56.522;14.950;2023-07-22T03:44:08;2.03;;;0.90;;
11763;SDS011;5939;56.522;14.950;2023-07-22T03:46:34;2.03;;;1.20;;
11763;SDS011;5939;56.522;14.950;2023-07-22T03:49:00;1.20;;;1.10;;
11763;SDS011;5939;56.522;14.950;2023-07-22T03:51:25;2.10;;;1.30;;
11763;SDS011;5939;56.522;14.950;2023-07-22T03:53:51;1.47;;;1.00;;
11763;SDS011;5939;56.522;14.950;2023-07-22T03:56:17;1.57;;;1.33;;
11763;SDS011;5939;56.522;14.950;2023-07-22T03:58:42;2.63;;;1.20;;
11763;SDS011;5939;56.522;14.950;2023-07-22T04:01:10;1.27;;;1.17;;
11763;SDS011;5939;56.522;14.950;2023-07-22T04:03:36;1.50;;;1.30;;
11763;SDS011;5939;56.522;14.950;2023-07-22T04:06:02;1.30;;;1.20;;
11763;SDS011;5939;56.522;14.950;2023-07-22T04:08:27;1.13;;;1.03;;
11763;SDS011;5939;56.522;14.950;2023-07-22T04:10:53;1.50;;;1.30;;
11763;SDS011;5939;56.522;14.950;2023-07-22T04:13:20;2.90;;;1.50;;
11763;SDS011;5939;56.522;14.950;2023-07-22T04:15:46;1.30;;;1.20;;
11763;SDS011;5939;56.522;14.950;2023-07-22T04:18:14;1.60;;;1.30;;
11763;SDS011;5939;56.522;14.950;2023-07-22T04:20:40;1.33;;;1.23;;
11763;SDS011;5939;56.522;14.950;2023-07-22T04:23:06;1.60;;;1.33;;
11763;SDS011;5939;56.522;14.950;2023-07-22T04:25:32;1.50;;;1.40;;
11763;SDS011;5939;56.522;14.950;2023-07-22T04:27:57;1.20;;;1.10;;
11763;SDS011;5939;56.522;14.950;2023-07-22T04:30:23;1.60;;;1.30;;
11763;SDS011;5939;56.522;14.950;2023-07-22T04:32:49;1.83;;;1.50;;
11763;SDS011;5939;56.522;14.950;2023-07-22T04:35:19;1.63;;;1.30;;
11763;SDS011;5939;56.522;14.950;2023-07-22T04:37:44;1.73;;;1.10;;
11763;SDS011;5939;56.522;14.950;2023-07-22T04:40:10;1.40;;;1.20;;
11763;SDS011;5939;56.522;14.950;2023-07-22T04:42:41;1.20;;;1.10;;
11763;SDS011;5939;56.522;14.950;2023-07-22T04:45:08;3.00;;;1.33;;
11763;SDS011;5939;56.522;14.950;2023-07-22T04:47:37;1.67;;;1.20;;
11763;SDS011;5939;56.522;14.950;2023-07-22T04:50:07;1.50;;;1.40;;
11763;SDS011;5939;56.522;14.950;2023-07-22T04:52:36;1.40;;;1.30;;
11763;SDS011;5939;56.522;14.950;2023-07-22T04:55:02;1.57;;;1.27;;
11763;SDS011;5939;56.522;14.950;2023-07-22T04:57:34;1.90;;;1.50;;
11763;SDS011;5939;56.522;14.950;2023-07-22T05:00:01;1.90;;;1.50;;
11763;SDS011;5939;56.522;14.950;2023-07-22T05:02:29;1.50;;;1.40;;
11763;SDS011;5939;56.522;14.950;2023-07-22T05:04:55;2.07;;;1.60;;
11763;SDS011;5939;56.522;14.950;2023-07-22T05:07:21;2.17;;;1.60;;
11763;SDS011;5939;56.522;14.950;2023-07-22T05:09:47;2.17;;;1.73;;
11763;SDS011;5939;56.522;14.950;2023-07-22T05:12:13;2.47;;;1.83;;
11763;SDS011;5939;56.522;14.950;2023-07-22T05:14:39;2.70;;;1.60;;
11763;SDS011;5939;56.522;14.950;2023-07-22T05:17:05;2.97;;;1.60;;
11763;SDS011;5939;56.522;14.950;2023-07-22T05:19:30;3.00;;;1.87;;
11763;SDS011;5939;56.522;14.950;2023-07-22T05:21:56;2.67;;;1.67;;
11763;SDS011;5939;56.522;14.950;2023-07-22T05:24:22;2.17;;;1.67;;
11763;SDS011;5939;56.522;14.950;2023-07-22T05:26:47;3.53;;;1.70;;
11763;SDS011;5939;56.522;14.950;2023-07-22T05:29:13;2.87;;;1.80;;
11763;SDS011;5939;56.522;14.950;2023-07-22T05:31:39;1.93;;;1.80;;
11763;SDS011;5939;56.522;14.950;2023-07-22T05:34:05;1.90;;;1.70;;
11763;SDS011;5939;56.522;14.950;2023-07-22T05:36:30;2.17;;;1.93;;
11763;SDS011;5939;56.522;14.950;2023-07-22T05:38:57;4.70;;;1.70;;
11763;SDS011;5939;56.522;14.950;2023-07-22T05:41:22;2.63;;;1.90;;
11763;SDS011;5939;56.522;14.950;2023-07-22T05:43:48;2.30;;;1.97;;
11763;SDS011;5939;56.522;14.950;2023-07-22T05:46:14;3.97;;;1.97;;
11763;SDS011;5939;56.522;14.950;2023-07-22T05:48:39;2.83;;;1.80;;
11763;SDS011;5939;56.522;14.950;2023-07-22T05:51:05;2.70;;;2.07;;
11763;SDS011;5939;56.522;14.950;2023-07-22T05:53:32;2.00;;;1.87;;
11763;SDS011;5939;56.522;14.950;2023-07-22T05:55:57;2.77;;;2.00;;
11763;SDS011;5939;56.522;14.950;2023-07-22T05:58:23;2.50;;;2.30;;
11763;SDS011;5939;56.522;14.950;2023-07-22T06:00:49;2.30;;;2.10;;
11763;SDS011;5939;56.522;14.950;2023-07-22T06:03:16;2.50;;;1.97;;
11763;SDS011;5939;56.522;14.950;2023-07-22T06:05:42;2.63;;;2.00;;
11763;SDS011;5939;56.522;14.950;2023-07-22T06:08:08;2.23;;;1.93;;
11763;SDS011;5939;56.522;14.950;2023-07-22T06:10:34;2.57;;;2.37;;
11763;SDS011;5939;56.522;14.950;2023-07-22T06:13:02;2.30;;;2.03;;
11763;SDS011;5939;56.522;14.950;2023-07-22T06:15:27;2.43;;;1.90;;
11763;SDS011;5939;56.522;14.950;2023-07-22T06:17:53;2.77;;;2.17;;
11763;SDS011;5939;56.522;14.950;2023-07-22T06:20:18;3.33;;;2.00;;
11763;SDS011;5939;56.522;14.950;2023-07-22T06:22:44;3.60;;;2.03;;
11763;SDS011;5939;56.522;14.950;2023-07-22T06:25:10;2.50;;;2.00;;
11763;SDS011;5939;56.522;14.950;2023-07-22T06:27:35;2.73;;;2.10;;
11763;SDS011;5939;56.522;14.950;2023-07-22T06:30:01;2.50;;;2.07;;
11763;SDS011;5939;56.522;14.950;2023-07-22T06:32:27;2.20;;;2.00;;
11763;SDS011;5939;56.522;14.950;2023-07-22T06:34:55;1.90;;;1.73;;
11763;SDS011;5939;56.522;14.950;2023-07-22T06:37:21;3.33;;;2.30;;
11763;SDS011;5939;56.522;14.950;2023-07-22T06:39:48;3.23;;;2.03;;
11763;SDS011;5939;56.522;14.950;2023-07-22T06:42:13;3.13;;;2.10;;
11763;SDS011;5939;56.522;14.950;2023-07-22T06:44:39;2.00;;;1.80;;
11763;SDS011;5939;56.522;14.950;2023-07-22T06:47:04;3.13;;;2.10;;
11763;SDS011;5939;56.522;14.950;2023-07-22T06:49:30;2.27;;;2.07;;
11763;SDS011;5939;56.522;14.950;2023-07-22T06:51:56;2.57;;;1.80;;
11763;SDS011;5939;56.522;14.950;2023-07-22T06:54:22;2.40;;;2.20;;
11763;SDS011;5939;56.522;14.950;2023-07-22T06:56:47;2.90;;;2.10;;
11763;SDS011;5939;56.522;14.950;2023-07-22T06:59:13;2.73;;;1.97;;
11763;SDS011;5939;56.522;14.950;2023-07-22T07:01:38;2.73;;;2.10;;
11763;SDS011;5939;56.522;14.950;2023-07-22T07:04:04;2.37;;;1.90;;
11763;SDS011;5939;56.522;14.950;2023-07-22T07:06:30;2.77;;;2.00;;
11763;SDS011;5939;56.522;14.950;2023-07-22T07:08:58;2.97;;;1.80;;
11763;SDS011;5939;56.522;14.950;2023-07-22T07:11:25;2.30;;;2.00;;
11763;SDS011;5939;56.522;14.950;2023-07-22T07:13:51;2.43;;;2.00;;
11763;SDS011;5939;56.522;14.950;2023-07-22T07:18:50;3.90;;;2.13;;
11763;SDS011;5939;56.522;14.950;2023-07-22T07:21:20;2.57;;;2.20;;
11763;SDS011;5939;56.522;14.950;2023-07-22T07:23:46;3.07;;;2.10;;
11763;SDS011;5939;56.522;14.950;2023-07-22T07:26:13;2.30;;;2.10;;
11763;SDS011;5939;56.522;14.950;2023-07-22T07:28:38;2.17;;;1.90;;
11763;SDS011;5939;56.522;14.950;2023-07-22T07:31:04;2.60;;;2.03;;
11763;SDS011;5939;56.522;14.950;2023-07-22T07:33:30;3.87;;;2.13;;
11763;SDS011;5939;56.522;14.950;2023-07-22T07:35:56;3.17;;;1.80;;
11763;SDS011;5939;56.522;14.950;2023-07-22T07:38:21;2.67;;;2.30;;
11763;SDS011;5939;56.522;14.950;2023-07-22T07:40:51;3.70;;;2.20;;
11763;SDS011;5939;56.522;14.950;2023-07-22T07:43:36;3.20;;;2.07;;
11763;SDS011;5939;56.522;14.950;2023-07-22T07:46:24;2.63;;;2.33;;
11763;SDS011;5939;56.522;14.950;2023-07-22T07:48:50;2.87;;;2.40;;
11763;SDS011;5939;56.522;14.950;2023-07-22T07:51:21;3.87;;;2.63;;
11763;SDS011;5939;56.522;14.950;2023-07-22T07:53:49;3.33;;;2.37;;
11763;SDS011;5939;56.522;14.950;2023-07-22T07:56:15;2.90;;;2.17;;
11763;SDS011;5939;56.522;14.950;2023-07-22T07:58:42;2.87;;;2.27;;
11763;SDS011;5939;56.522;14.950;2023-07-22T08:01:09;2.70;;;2.00;;
11763;SDS011;5939;56.522;14.950;2023-07-22T08:03:35;3.40;;;2.50;;
11763;SDS011;5939;56.522;14.950;2023-07-22T08:06:02;4.20;;;2.23;;
11763;SDS011;5939;56.522;14.950;2023-07-22T08:08:28;2.97;;;2.40;;
11763;SDS011;5939;56.522;14.950;2023-07-22T08:10:57;3.10;;;2.20;;
11763;SDS011;5939;56.522;14.950;2023-07-22T08:13:31;3.67;;;2.27;;
11763;SDS011;5939;56.522;14.950;2023-07-22T08:15:58;3.80;;;2.60;;
11763;SDS011;5939;56.522;14.950;2023-07-22T08:18:28;4.30;;;2.47;;
11763;SDS011;5939;56.522;14.950;2023-07-22T08:20:56;2.60;;;2.30;;
11763;SDS011;5939;56.522;14.950;2023-07-22T08:23:22;3.10;;;2.17;;
11763;SDS011;5939;56.522;14.950;2023-07-22T08:25:48;2.77;;;2.30;;
11763;SDS011;5939;56.522;14.950;2023-07-22T08:28:14;2.70;;;2.30;;
11763;SDS011;5939;56.522;14.950;2023-07-22T08:30:40;3.70;;;2.30;;
11763;SDS011;5939;56.522;14.950;2023-07-22T08:33:07;3.17;;;2.10;;
11763;SDS011;5939;56.522;14.950;2023-07-22T08:35:36;3.50;;;2.57;;
11763;SDS011;5939;56.522;14.950;2023-07-22T08:38:03;3.80;;;2.57;;
11763;SDS011;5939;56.522;14.950;2023-07-22T08:40:41;2.97;;;2.43;;
11763;SDS011;5939;56.522;14.950;2023-07-22T08:43:07;3.20;;;2.23;;
11763;SDS011;5939;56.522;14.950;2023-07-22T08:45:35;2.90;;;2.07;;
11763;SDS011;5939;56.522;14.950;2023-07-22T08:48:04;2.40;;;2.07;;
11763;SDS011;5939;56.522;14.950;2023-07-22T08:50:44;2.73;;;2.00;;
11763;SDS011;5939;56.522;14.950;2023-07-22T08:53:14;2.87;;;2.47;;
11763;SDS011;5939;56.522;14.950;2023-07-22T08:55:41;2.50;;;2.13;;
11763;SDS011;5939;56.522;14.950;2023-07-22T08:58:08;2.40;;;2.13;;
11763;SDS011;5939;56.522;14.950;2023-07-22T09:00:34;3.30;;;2.50;;
11763;SDS011;5939;56.522;14.950;2023-07-22T09:03:00;2.23;;;2.00;;
11763;SDS011;5939;56.522;14.950;2023-07-22T09:05:26;2.97;;;2.40;;
11763;SDS011;5939;56.522;14.950;2023-07-22T09:07:53;3.40;;;2.20;;
11763;SDS011;5939;56.522;14.950;2023-07-22T09:10:21;4.27;;;2.50;;
11763;SDS011;5939;56.522;14.950;2023-07-22T09:12:49;2.67;;;2.47;;
11763;SDS011;5939;56.522;14.950;2023-07-22T09:15:16;3.83;;;2.40;;
11763;SDS011;5939;56.522;14.950;2023-07-22T09:17:43;3.43;;;2.30;;
11763;SDS011;5939;56.522;14.950;2023-07-22T09:20:11;3.90;;;2.40;;
11763;SDS011;5939;56.522;14.950;2023-07-22T09:22:42;3.67;;;2.47;;
11763;SDS011;5939;56.522;14.950;2023-07-22T09:25:13;2.57;;;2.20;;
11763;SDS011;5939;56.522;14.950;2023-07-22T09:27:40;3.17;;;2.23;;
11763;SDS011;5939;56.522;14.950;2023-07-22T09:30:27;2.83;;;2.30;;
11763;SDS011;5939;56.522;14.950;2023-07-22T09:32:59;3.00;;;2.10;;
11763;SDS011;5939;56.522;14.950;2023-07-22T09:35:28;3.67;;;2.50;;
11763;SDS011;5939;56.522;14.950;2023-07-22T09:38:10;4.53;;;2.40;;
11763;SDS011;5939;56.522;14.950;2023-07-22T09:40:36;6.10;;;2.60;;
11763;SDS011;5939;56.522;14.950;2023-07-22T09:43:05;3.70;;;2.40;;
11763;SDS011;5939;56.522;14.950;2023-07-22T09:45:34;4.13;;;2.27;;
11763;SDS011;5939;56.522;14.950;2023-07-22T09:48:00;3.20;;;2.43;;
11763;SDS011;5939;56.522;14.950;2023-07-22T09:50:26;5.17;;;2.33;;
11763;SDS011;5939;56.522;14.950;2023-07-22T09:52:53;3.37;;;2.30;;
11763;SDS011;5939;56.522;14.950;2023-07-22T09:55:21;3.63;;;2.10;;
11763;SDS011;5939;56.522;14.950;2023-07-22T09:57:55;2.37;;;1.90;;
11763;SDS011;5939;56.522;14.950;2023-07-22T10:00:23;3.03;;;1.97;;
11763;SDS011;5939;56.522;14.950;2023-07-22T10:02:51;2.37;;;1.97;;
11763;SDS011;5939;56.522;14.950;2023-07-22T10:05:17;3.17;;;2.10;;
11763;SDS011;5939;56.522;14.950;2023-07-22T10:07:47;4.40;;;2.43;;
11763;SDS011;5939;56.522;14.950;2023-07-22T10:10:22;2.40;;;1.77;;
11763;SDS011;5939;56.522;14.950;2023-07-22T10:12:51;4.10;;;1.90;;
11763;SDS011;5939;56.522;14.950;2023-07-22T10:15:18;2.70;;;1.80;;
11763;SDS011;5939;56.522;14.950;2023-07-22T10:17:44;2.83;;;1.70;;
11763;SDS011;5939;56.522;14.950;2023-07-22T10:20:10;2.50;;;1.57;;
11763;SDS011;5939;56.522;14.950;2023-07-22T10:22:41;2.90;;;1.80;;
11763;SDS011;5939;56.522;14.950;2023-07-22T10:25:08;2.43;;;1.70;;
11763;SDS011;5939;56.522;14.950;2023-07-22T10:27:45;2.00;;;1.70;;
11763;SDS011;5939;56.522;14.950;2023-07-22T10:30:12;2.43;;;1.50;;
11763;SDS011;5939;56.522;14.950;2023-07-22T10:32:40;2.17;;;1.50;;
11763;SDS011;5939;56.522;14.950;2023-07-22T10:35:07;1.83;;;1.60;;
11763;SDS011;5939;56.522;14.950;2023-07-22T10:37:38;2.63;;;1.50;;
11763;SDS011;5939;56.522;14.950;2023-07-22T10:40:25;1.73;;;1.53;;
11763;SDS011;5939;56.522;14.950;2023-07-22T10:43:05;1.63;;;1.43;;
11763;SDS011;5939;56.522;14.950;2023-07-22T10:45:32;2.30;;;1.50;;
11763;SDS011;5939;56.522;14.950;2023-07-22T10:48:11;1.80;;;1.40;;
11763;SDS011;5939;56.522;14.950;2023-07-22T10:50:42;2.23;;;1.40;;
11763;SDS011;5939;56.522;14.950;2023-07-22T10:53:12;1.47;;;1.37;;
11763;SDS011;5939;56.522;14.950;2023-07-22T11:14:23;1.47;;;1.37;;
11763;SDS011;5939;56.522;14.950;2023-07-22T11:16:50;1.80;;;1.33;;
11763;SDS011;5939;56.522;14.950;2023-07-22T11:19:17;1.67;;;1.50;;
11763;SDS011;5939;56.522;14.950;2023-07-22T11:21:44;1.57;;;1.47;;
11763;SDS011;5939;56.522;14.950;2023-07-22T11:24:11;1.57;;;1.27;;
11763;SDS011;5939;56.522;14.950;2023-07-22T11:26:37;13.47;;;1.60;;
11763;SDS011;5939;56.522;14.950;2023-07-22T11:29:04;1.40;;;1.30;;
11763;SDS011;5939;56.522;14.950;2023-07-22T11:31:31;2.30;;;1.43;;
11763;SDS011;5939;56.522;14.950;2023-07-22T11:33:58;2.97;;;1.53;;
11763;SDS011;5939;56.522;14.950;2023-07-22T11:36:25;4.37;;;1.77;;
11763;SDS011;5939;56.522;14.950;2023-07-22T11:38:54;2.00;;;1.23;;
11763;SDS011;5939;56.522;14.950;2023-07-22T11:41:36;1.77;;;1.57;;
11763;SDS011;5939;56.522;14.950;2023-07-22T11:44:03;1.30;;;1.20;;
11763;SDS011;5939;56.522;14.950;2023-07-22T11:46:33;2.27;;;1.60;;
11763;SDS011;5939;56.522;14.950;2023-07-22T11:49:01;1.53;;;1.43;;
11763;SDS011;5939;56.522;14.950;2023-07-22T11:51:28;1.87;;;1.50;;
11763;SDS011;5939;56.522;14.950;2023-07-22T11:53:54;2.57;;;1.33;;
11763;SDS011;5939;56.522;14.950;2023-07-22T11:56:21;1.57;;;1.40;;
11763;SDS011;5939;56.522;14.950;2023-07-22T11:58:51;1.77;;;1.37;;
11763;SDS011;5939;56.522;14.950;2023-07-22T12:01:17;1.93;;;1.20;;
11763;SDS011;5939;56.522;14.950;2023-07-22T12:03:43;1.23;;;1.13;;
11763;SDS011;5939;56.522;14.950;2023-07-22T12:06:09;1.80;;;1.30;;
11763;SDS011;5939;56.522;14.950;2023-07-22T12:08:35;1.80;;;1.20;;
11763;SDS011;5939;56.522;14.950;2023-07-22T12:11:02;2.03;;;1.30;;
11763;SDS011;5939;56.522;14.950;2023-07-22T12:13:29;1.93;;;1.00;;
11763;SDS011;5939;56.522;14.950;2023-07-22T12:16:01;2.60;;;1.10;;
11763;SDS011;5939;56.522;14.950;2023-07-22T12:18:27;1.43;;;1.33;;
11763;SDS011;5939;56.522;14.950;2023-07-22T12:20:53;2.03;;;1.07;;
11763;SDS011;5939;56.522;14.950;2023-07-22T12:23:19;1.40;;;1.00;;
11763;SDS011;5939;56.522;14.950;2023-07-22T12:25:46;1.53;;;1.00;;
11763;SDS011;5939;56.522;14.950;2023-07-22T12:28:12;1.30;;;0.90;;
11763;SDS011;5939;56.522;14.950;2023-07-22T12:30:37;1.40;;;1.30;;
11763;SDS011;5939;56.522;14.950;2023-07-22T12:33:03;2.13;;;1.10;;
11763;SDS011;5939;56.522;14.950;2023-07-22T12:35:29;1.20;;;1.00;;
11763;SDS011;5939;56.522;14.950;2023-07-22T12:37:54;1.20;;;0.90;;
11763;SDS011;5939;56.522;14.950;2023-07-22T12:40:20;1.13;;;0.90;;
11763;SDS011;5939;56.522;14.950;2023-07-22T12:42:46;2.10;;;1.00;;
11763;SDS011;5939;56.522;14.950;2023-07-22T12:45:12;1.90;;;1.00;;
11763;SDS011;5939;56.522;14.950;2023-07-22T12:47:37;1.00;;;0.90;;
11763;SDS011;5939;56.522;14.950;2023-07-22T12:50:03;2.10;;;1.00;;
11763;SDS011;5939;56.522;14.950;2023-07-22T12:52:32;1.97;;;1.00;;
11763;SDS011;5939;56.522;14.950;2023-07-22T12:54:58;1.10;;;1.00;;
11763;SDS011;5939;56.522;14.950;2023-07-22T12:57:23;1.80;;;1.10;;
11763;SDS011;5939;56.522;14.950;2023-07-22T12:59:49;1.93;;;0.87;;
11763;SDS011;5939;56.522;14.950;2023-07-22T13:02:16;1.30;;;1.10;;
11763;SDS011;5939;56.522;14.950;2023-07-22T13:04:42;1.10;;;0.93;;
11763;SDS011;5939;56.522;14.950;2023-07-22T13:07:09;1.30;;;1.10;;
11763;SDS011;5939;56.522;14.950;2023-07-22T13:09:34;2.50;;;1.20;;
11763;SDS011;5939;56.522;14.950;2023-07-22T13:12:00;1.60;;;1.00;;
11763;SDS011;5939;56.522;14.950;2023-07-22T13:14:26;1.20;;;1.00;;
11763;SDS011;5939;56.522;14.950;2023-07-22T13:16:51;1.07;;;0.97;;
11763;SDS011;5939;56.522;14.950;2023-07-22T13:19:17;2.67;;;0.90;;
11763;SDS011;5939;56.522;14.950;2023-07-22T13:21:42;0.70;;;0.70;;
11763;SDS011;5939;56.522;14.950;2023-07-22T13:24:08;1.37;;;1.00;;
11763;SDS011;5939;56.522;14.950;2023-07-22T13:26:34;2.03;;;1.00;;
11763;SDS011;5939;56.522;14.950;2023-07-22T13:29:00;1.00;;;0.87;;
11763;SDS011;5939;56.522;14.950;2023-07-22T13:31:25;1.53;;;1.00;;
11763;SDS011;5939;56.522;14.950;2023-07-22T13:33:51;1.33;;;0.80;;
11763;SDS011;5939;56.522;14.950;2023-07-22T13:36:17;1.10;;;1.00;;
11763;SDS011;5939;56.522;14.950;2023-07-22T13:38:42;1.50;;;1.00;;
11763;SDS011;5939;56.522;14.950;2023-07-22T13:41:08;1.30;;;1.20;;
11763;SDS011;5939;56.522;14.950;2023-07-22T13:43:33;1.07;;;0.80;;
11763;SDS011;5939;56.522;14.950;2023-07-22T13:45:59;1.77;;;1.10;;
11763;SDS011;5939;56.522;14.950;2023-07-22T13:48:25;1.70;;;1.30;;
11763;SDS011;5939;56.522;14.950;2023-07-22T13:50:50;0.80;;;0.80;;
11763;SDS011;5939;56.522;14.950;2023-07-22T13:53:16;0.80;;;0.80;;
11763;SDS011;5939;56.522;14.950;2023-07-22T13:55:41;1.00;;;0.90;;
11763;SDS011;5939;56.522;14.950;2023-07-22T13:58:07;0.90;;;0.90;;
11763;SDS011;5939;56.522;14.950;2023-07-22T14:00:33;1.10;;;1.00;;
11763;SDS011;5939;56.522;14.950;2023-07-22T14:02:59;3.47;;;1.00;;
11763;SDS011;5939;56.522;14.950;2023-07-22T14:05:24;1.20;;;0.97;;
11763;SDS011;5939;56.522;14.950;2023-07-22T14:07:50;1.10;;;1.00;;
11763;SDS011;5939;56.522;14.950;2023-07-22T14:10:16;1.10;;;0.90;;
11763;SDS011;5939;56.522;14.950;2023-07-22T14:12:41;1.67;;;1.23;;
11763;SDS011;5939;56.522;14.950;2023-07-22T14:15:07;1.43;;;1.00;;
11763;SDS011;5939;56.522;14.950;2023-07-22T14:17:33;2.27;;;1.10;;
11763;SDS011;5939;56.522;14.950;2023-07-22T14:19:59;1.17;;;1.07;;
11763;SDS011;5939;56.522;14.950;2023-07-22T14:22:25;0.90;;;0.90;;
11763;SDS011;5939;56.522;14.950;2023-07-22T14:24:50;2.57;;;0.93;;
11763;SDS011;5939;56.522;14.950;2023-07-22T14:27:16;1.33;;;1.00;;
11763;SDS011;5939;56.522;14.950;2023-07-22T14:29:41;1.17;;;1.07;;
11763;SDS011;5939;56.522;14.950;2023-07-22T14:32:07;2.13;;;1.10;;
11763;SDS011;5939;56.522;14.950;2023-07-22T14:34:34;1.40;;;1.10;;
11763;SDS011;5939;56.522;14.950;2023-07-22T14:36:59;1.20;;;1.00;;
11763;SDS011;5939;56.522;14.950;2023-07-22T14:39:25;1.10;;;1.00;;
11763;SDS011;5939;56.522;14.950;2023-07-22T14:41:51;1.77;;;1.00;;
11763;SDS011;5939;56.522;14.950;2023-07-22T14:44:16;3.83;;;1.40;;
11763;SDS011;5939;56.522;14.950;2023-07-22T14:46:43;1.77;;;1.03;;
11763;SDS011;5939;56.522;14.950;2023-07-22T14:49:09;1.23;;;1.07;;
11763;SDS011;5939;56.522;14.950;2023-07-22T14:51:35;1.30;;;1.00;;
11763;SDS011;5939;56.522;14.950;2023-07-22T14:54:01;0.90;;;0.80;;
11763;SDS011;5939;56.522;14.950;2023-07-22T14:56:27;1.37;;;1.07;;
11763;SDS011;5939;56.522;14.950;2023-07-22T14:58:53;1.10;;;1.00;;
11763;SDS011;5939;56.522;14.950;2023-07-22T15:01:18;1.27;;;1.00;;
11763;SDS011;5939;56.522;14.950;2023-07-22T15:03:46;1.37;;;0.90;;
11763;SDS011;5939;56.522;14.950;2023-07-22T15:06:12;0.80;;;0.80;;
11763;SDS011;5939;56.522;14.950;2023-07-22T15:08:38;0.90;;;0.90;;